Terminal Aerodrome Forecast
Issued by NWS Charleston, WV

Current Version | Previous Version | Graphics & Text | Print | Product List | Glossary On
Versions: 1 2 3 4 5 6 7 8 9 10 11 12 13 14 15 16 17 18 19 20 21 22
479
FTUS41 KRLX 240217 AAA
TAFPKB
TAF AMD
KPKB 240217Z 2402/2424 00000KT P6SM FEW250
     FM240700 00000KT 6SM BR FEW040
     FM240800 00000KT 4SM BR FEW040
     FM241100 00000KT 3SM BR FEW250
     FM241300 06003KT P6SM FEW050=

USA.gov is the U.S. government's official web portal to all federal, state and local government web resources and services.